createdAt,value
2018-03-06T00:02:14.512Z,12.63
2018-03-06T00:04:41.985Z,15.97
2018-03-06T00:07:09.470Z,17.27
2018-03-06T00:09:36.949Z,13.70
2018-03-06T00:12:04.438Z,15.97
2018-03-06T00:14:31.900Z,16.97
2018-03-06T00:16:59.375Z,12.80
2018-03-06T00:19:27.615Z,15.17
2018-03-06T00:21:55.078Z,16.50
2018-03-06T00:24:23.293Z,15.37
2018-03-06T00:26:51.536Z,14.57
2018-03-06T00:29:19.017Z,16.13
2018-03-06T00:31:46.480Z,18.03
2018-03-06T00:34:14.726Z,14.53
2018-03-06T00:36:42.204Z,16.43
2018-03-06T00:39:10.468Z,14.97
2018-03-06T00:41:37.920Z,17.17
2018-03-06T00:44:05.391Z,15.23
2018-03-06T00:46:32.868Z,15.17
2018-03-06T00:49:00.366Z,15.37
2018-03-06T00:51:27.838Z,17.17
2018-03-06T00:53:55.296Z,18.97
2018-03-06T00:56:22.819Z,18.00
2018-03-06T00:58:50.241Z,19.80
2018-03-06T01:01:18.466Z,18.20
2018-03-06T01:03:45.942Z,17.33
2018-03-06T01:06:13.433Z,18.33
2018-03-06T01:08:41.664Z,21.47
2018-03-06T01:11:09.937Z,22.60
2018-03-06T01:13:38.174Z,21.17
2018-03-06T01:16:05.640Z,20.50
2018-03-06T01:18:33.108Z,21.50
2018-03-06T01:21:01.286Z,20.03
2018-03-06T01:23:28.771Z,19.30
2018-03-06T01:25:56.253Z,20.37
2018-03-06T01:28:24.497Z,22.07
2018-03-06T01:30:51.988Z,23.77
2018-03-06T01:33:20.241Z,27.50
2018-03-06T01:35:47.725Z,19.80
2018-03-06T01:38:15.962Z,22.97
2018-03-06T01:40:43.445Z,19.77
2018-03-06T01:43:12.077Z,21.97
2018-03-06T01:45:39.533Z,22.40
2018-03-06T01:48:06.991Z,23.10
2018-03-06T01:50:34.473Z,25.07
2018-03-06T01:53:01.949Z,22.33
2018-03-06T01:55:29.422Z,20.90
2018-03-06T01:57:57.664Z,24.00
2018-03-06T02:00:25.143Z,27.77
2018-03-06T02:02:52.625Z,20.37
2018-03-06T02:05:20.120Z,23.93
2018-03-06T02:07:47.606Z,21.63
2018-03-06T02:10:15.089Z,24.63
2018-03-06T02:12:43.305Z,21.03
2018-03-06T02:15:10.749Z,18.63
2018-03-06T02:17:38.224Z,20.77
2018-03-06T02:20:05.722Z,22.90
2018-03-06T02:22:33.945Z,25.97
2018-03-06T02:25:01.441Z,22.07
2018-03-06T02:27:28.896Z,23.47
2018-03-06T02:29:56.365Z,23.63
2018-03-06T02:32:24.592Z,24.80
2018-03-06T02:34:52.072Z,24.83
2018-03-06T02:37:19.576Z,27.97
2018-03-06T02:39:47.025Z,19.40
2018-03-06T02:42:15.257Z,20.87
2018-03-06T02:44:42.733Z,27.90
2018-03-06T02:47:10.247Z,22.80
2018-03-06T02:49:37.721Z,25.87
2018-03-06T02:52:05.214Z,21.90
2018-03-06T02:54:33.452Z,22.07
2018-03-06T02:57:00.936Z,21.63
2018-03-06T02:59:28.376Z,25.80
2018-03-06T03:01:55.837Z,24.37
2018-03-06T03:04:23.288Z,24.27
2018-03-06T03:06:50.745Z,25.40
2018-03-06T03:09:18.214Z,25.07
2018-03-06T03:11:45.660Z,24.63
2018-03-06T03:14:13.111Z,22.20
2018-03-06T03:16:40.572Z,21.30
2018-03-06T03:19:08.009Z,23.53
2018-03-06T03:21:35.492Z,22.93
2018-03-06T03:24:02.981Z,25.40
2018-03-06T03:26:31.245Z,26.80
2018-03-06T03:28:59.479Z,27.00
2018-03-06T03:31:26.980Z,28.00
2018-03-06T03:33:54.437Z,28.40
2018-03-06T03:36:22.664Z,27.33
2018-03-06T03:38:50.185Z,24.73
2018-03-06T03:41:17.653Z,31.30
2018-03-06T03:43:45.088Z,25.87
2018-03-06T03:46:13.337Z,27.10
2018-03-06T03:48:40.821Z,27.27
2018-03-06T03:51:09.068Z,29.00
2018-03-06T03:53:36.510Z,26.60
2018-03-06T03:56:03.952Z,27.77
2018-03-06T03:58:31.409Z,26.77
2018-03-06T04:00:58.865Z,29.53
2018-03-06T04:03:26.340Z,28.07
2018-03-06T04:05:53.816Z,28.77
2018-03-06T04:08:21.301Z,32.83
2018-03-06T04:10:48.781Z,31.43
2018-03-06T04:13:16.268Z,28.30
2018-03-06T04:15:43.739Z,29.43
2018-03-06T04:18:11.186Z,31.93
2018-03-06T04:20:38.660Z,34.57
2018-03-06T04:23:06.145Z,30.23
2018-03-06T04:25:33.622Z,30.83
2018-03-06T04:28:01.104Z,33.67
2018-03-06T04:30:28.599Z,29.20
2018-03-06T04:32:56.821Z,32.07
2018-03-06T04:35:24.272Z,35.87
2018-03-06T04:37:51.727Z,28.77
2018-03-06T04:40:19.184Z,29.97
2018-03-06T04:42:46.656Z,28.33
2018-03-06T04:45:14.130Z,28.30
2018-03-06T04:47:41.652Z,29.80
2018-03-06T04:50:09.129Z,27.70
2018-03-06T04:52:36.713Z,30.93
2018-03-06T04:55:04.180Z,34.50
2018-03-06T04:57:31.648Z,32.77
2018-03-06T04:59:59.872Z,34.53
2018-03-06T05:02:27.327Z,30.73
2018-03-06T05:04:54.816Z,36.33
2018-03-06T05:07:22.329Z,32.60
2018-03-06T05:09:49.774Z,33.13
2018-03-06T05:12:17.228Z,45.57
2018-03-06T05:14:44.696Z,39.50
2018-03-06T05:17:12.188Z,41.67
2018-03-06T05:19:39.668Z,42.50
2018-03-06T05:22:07.915Z,39.13
2018-03-06T05:24:35.392Z,35.70
2018-03-06T05:27:03.634Z,34.60
2018-03-06T05:29:31.102Z,37.80
2018-03-06T05:31:58.589Z,44.50
2018-03-06T05:34:26.824Z,35.97
2018-03-06T05:36:54.282Z,39.00
2018-03-06T05:39:21.758Z,42.77
2018-03-06T05:41:49.232Z,47.07
2018-03-06T05:44:17.491Z,42.60
2018-03-06T05:46:44.949Z,37.43
2018-03-06T05:49:12.423Z,33.97
2018-03-06T05:51:40.677Z,42.73
2018-03-06T05:54:08.141Z,39.63
2018-03-06T05:56:35.616Z,46.47
2018-03-06T05:59:03.846Z,47.53
2018-03-06T06:01:31.316Z,41.27
2018-03-06T06:03:58.801Z,41.10
2018-03-06T06:06:27.034Z,43.70
2018-03-06T06:08:54.624Z,43.47
2018-03-06T06:11:22.105Z,39.73
2018-03-06T06:13:49.567Z,46.67
2018-03-06T06:16:17.845Z,44.57
2018-03-06T06:18:46.076Z,42.67
2018-03-06T06:21:13.540Z,44.07
2018-03-06T06:23:40.997Z,45.20
2018-03-06T06:26:08.476Z,49.00
2018-03-06T06:28:36.734Z,47.37
2018-03-06T06:31:04.231Z,50.30
2018-03-06T06:33:31.702Z,49.77
2018-03-06T06:35:59.174Z,51.47
2018-03-06T06:38:26.679Z,50.50
2018-03-06T06:40:54.911Z,46.47
2018-03-06T06:43:22.380Z,48.63
2018-03-06T06:45:49.847Z,47.03
2018-03-06T06:48:17.324Z,53.00
2018-03-06T06:50:45.559Z,45.07
2018-03-06T06:53:13.045Z,49.03
2018-03-06T06:55:40.502Z,48.30
2018-03-06T06:58:07.991Z,50.03
2018-03-06T07:00:35.456Z,50.23
2018-03-06T07:03:02.925Z,54.63
2018-03-06T07:05:30.384Z,49.63
2018-03-06T07:07:57.855Z,49.10
2018-03-06T07:10:25.333Z,44.70
2018-03-06T07:12:52.776Z,49.57
2018-03-06T07:15:20.261Z,52.30
2018-03-06T07:17:48.493Z,48.13
2018-03-06T07:20:15.976Z,42.40
2018-03-06T07:22:44.291Z,47.80
2018-03-06T07:25:12.573Z,50.33
2018-03-06T07:27:40.067Z,49.60
2018-03-06T07:30:07.517Z,50.27
2018-03-06T07:32:34.988Z,45.33
2018-03-06T07:35:02.446Z,49.13
2018-03-06T07:37:29.908Z,48.30
2018-03-06T07:39:57.362Z,48.50
2018-03-06T07:42:24.809Z,51.03
2018-03-06T07:44:52.296Z,53.70
2018-03-06T07:47:19.966Z,49.70
2018-03-06T07:49:48.207Z,51.80
2018-03-06T07:52:15.665Z,49.17
2018-03-06T07:54:43.111Z,50.80
2018-03-06T07:57:10.586Z,51.13
2018-03-06T07:59:38.061Z,43.07
2018-03-06T08:02:05.525Z,50.83
2018-03-06T08:04:33.764Z,49.83
2018-03-06T08:07:01.236Z,50.50
2018-03-06T08:09:28.693Z,50.23
2018-03-06T08:11:56.186Z,54.23
2018-03-06T08:14:24.539Z,55.03
2018-03-06T08:16:52.005Z,54.67
2018-03-06T08:19:20.245Z,54.40
2018-03-06T08:21:47.692Z,55.90
2018-03-06T08:24:15.170Z,57.73
2018-03-06T08:26:42.636Z,55.47
2018-03-06T08:29:10.097Z,55.63
2018-03-06T08:31:37.575Z,49.03
2018-03-06T08:34:05.816Z,52.77
2018-03-06T08:36:33.264Z,52.40
2018-03-06T08:39:00.745Z,53.67
2018-03-06T08:41:28.189Z,49.97
2018-03-06T08:43:56.140Z,55.70
2018-03-06T08:46:23.664Z,55.73
2018-03-06T08:48:53.020Z,53.40
2018-03-06T08:51:20.489Z,53.67
2018-03-06T08:53:48.734Z,54.23
2018-03-06T08:56:16.189Z,59.33
2018-03-06T08:58:43.637Z,56.47
2018-03-06T09:01:11.083Z,60.17
2018-03-06T09:03:38.592Z,53.13
2018-03-06T09:06:06.646Z,56.30
2018-03-06T09:08:34.097Z,56.67
2018-03-06T09:11:01.564Z,51.77
2018-03-06T09:13:29.069Z,57.40
2018-03-06T09:15:56.505Z,55.03
2018-03-06T09:18:23.999Z,57.87
2018-03-06T09:20:51.488Z,53.33
2018-03-06T09:23:18.953Z,53.20
2018-03-06T09:25:46.426Z,52.60
2018-03-06T09:28:13.919Z,49.93
2018-03-06T09:30:41.416Z,54.50
2018-03-06T09:33:08.868Z,53.43
2018-03-06T09:35:36.323Z,55.37
2018-03-06T09:38:03.892Z,52.33
2018-03-06T09:40:31.349Z,56.40
2018-03-06T09:42:58.851Z,52.10
2018-03-06T09:45:26.360Z,52.13
2018-03-06T09:47:53.870Z,50.60
2018-03-06T09:50:21.366Z,56.50
2018-03-06T09:52:48.814Z,53.60
2018-03-06T09:55:16.305Z,54.90
2018-03-06T09:57:44.580Z,49.33
2018-03-06T10:00:12.841Z,56.50
2018-03-06T10:02:40.351Z,47.93
2018-03-06T10:05:07.824Z,46.83
2018-03-06T10:07:35.303Z,51.93
2018-03-06T10:10:02.885Z,52.37
2018-03-06T10:12:31.129Z,52.60
2018-03-06T10:14:58.612Z,52.67
2018-03-06T10:17:26.081Z,46.97
2018-03-06T10:19:54.329Z,53.80
2018-03-06T10:22:21.792Z,52.07
2018-03-06T10:24:49.277Z,49.33
2018-03-06T10:27:17.580Z,50.30
2018-03-06T10:29:45.065Z,47.93
2018-03-06T10:32:12.530Z,48.40
2018-03-06T10:34:40.713Z,48.90
2018-03-06T10:37:08.180Z,47.00
2018-03-06T10:39:35.656Z,48.63
2018-03-06T10:42:03.133Z,49.63
2018-03-06T10:44:30.584Z,53.47
2018-03-06T10:46:58.060Z,44.77
2018-03-06T10:49:25.517Z,48.80
2018-03-06T10:51:52.997Z,48.27
2018-03-06T10:54:20.473Z,47.70
2018-03-06T10:56:47.949Z,44.73
2018-03-06T10:59:16.201Z,45.33
2018-03-06T11:01:44.631Z,48.50
2018-03-06T11:04:12.093Z,44.53
2018-03-06T11:06:39.559Z,50.93
2018-03-06T11:09:07.059Z,41.93
2018-03-06T11:11:35.312Z,41.33
2018-03-06T11:14:02.757Z,43.23
2018-03-06T11:16:30.247Z,47.90
2018-03-06T11:18:57.690Z,39.90
2018-03-06T11:21:25.153Z,44.30
2018-03-06T11:23:52.631Z,48.33
2018-03-06T11:26:20.938Z,40.80
2018-03-06T11:28:48.368Z,44.30
2018-03-06T11:31:16.600Z,44.13
2018-03-06T11:33:44.075Z,42.17
2018-03-06T11:36:11.528Z,47.73
2018-03-06T11:38:39.009Z,43.57
2018-03-06T11:41:07.257Z,49.17
2018-03-06T11:43:34.712Z,47.83
2018-03-06T11:46:02.208Z,44.00
2018-03-06T11:48:29.657Z,41.50
2018-03-06T11:50:57.897Z,41.03
2018-03-06T11:53:25.373Z,44.07
2018-03-06T11:55:53.626Z,45.80
2018-03-06T11:58:21.096Z,40.80
2018-03-06T12:00:48.613Z,44.60
2018-03-06T12:03:16.093Z,43.10
2018-03-06T12:05:43.565Z,45.87
2018-03-06T12:08:11.062Z,45.03
2018-03-06T12:10:38.547Z,44.87
2018-03-06T12:13:06.014Z,42.43
2018-03-06T12:15:33.480Z,46.67
2018-03-06T12:18:00.929Z,44.13
2018-03-06T12:20:28.378Z,46.47
2018-03-06T12:22:55.841Z,41.37
2018-03-06T12:25:23.329Z,40.93
2018-03-06T12:27:50.809Z,40.67
2018-03-06T12:30:19.043Z,41.90
2018-03-06T12:32:47.301Z,42.47
2018-03-06T12:35:14.797Z,38.73
2018-03-06T12:37:42.253Z,39.33
2018-03-06T12:40:10.487Z,39.70
2018-03-06T12:42:37.989Z,37.33
2018-03-06T12:45:06.226Z,34.30
2018-03-06T12:47:33.674Z,36.73
2018-03-06T12:50:01.171Z,30.40
2018-03-06T12:52:28.617Z,30.57
2018-03-06T12:54:56.161Z,36.20
2018-03-06T12:57:23.577Z,34.07
2018-03-06T12:59:51.046Z,35.73
2018-03-06T13:02:18.526Z,37.10
2018-03-06T13:04:45.992Z,35.73
2018-03-06T13:07:13.484Z,35.33
2018-03-06T13:09:41.709Z,33.10
2018-03-06T13:12:09.196Z,29.57
2018-03-06T13:14:36.660Z,29.37
2018-03-06T13:17:04.885Z,27.97
2018-03-06T13:19:32.336Z,29.93
2018-03-06T13:21:59.818Z,30.77
2018-03-06T13:24:27.273Z,27.50
2018-03-06T13:26:54.764Z,26.37
2018-03-06T13:29:23.034Z,29.30
2018-03-06T13:31:50.497Z,24.30
2018-03-06T13:34:18.773Z,23.93
2018-03-06T13:36:47.004Z,23.70
2018-03-06T13:39:14.444Z,25.50
2018-03-06T13:41:41.925Z,24.03
2018-03-06T13:44:09.376Z,22.07
2018-03-06T13:46:36.844Z,26.57
2018-03-06T13:49:04.323Z,23.83
2018-03-06T13:51:31.952Z,22.30
2018-03-06T13:53:59.409Z,22.87
2018-03-06T13:56:27.469Z,25.67
2018-03-06T13:58:54.980Z,24.43
2018-03-06T14:01:22.473Z,23.90
2018-03-06T14:03:49.925Z,20.93
2018-03-06T14:06:17.413Z,24.87
2018-03-06T14:08:44.885Z,23.03
2018-03-06T14:11:12.329Z,23.10
2018-03-06T14:13:39.818Z,24.07
2018-03-06T14:16:08.053Z,25.40
2018-03-06T14:18:35.542Z,30.23
2018-03-06T14:21:03.008Z,33.70
2018-03-06T14:23:31.257Z,35.07
2018-03-06T14:25:58.746Z,34.63
2018-03-06T14:28:26.982Z,33.07
2018-03-06T14:30:54.429Z,35.40
2018-03-06T14:33:21.886Z,29.63
2018-03-06T14:35:49.421Z,29.23
2018-03-06T14:38:16.893Z,36.20
2018-03-06T14:40:44.375Z,29.63
2018-03-06T14:43:11.849Z,31.80
2018-03-06T14:45:39.292Z,29.20
2018-03-06T14:48:06.824Z,40.73
2018-03-06T14:50:34.318Z,31.77
2018-03-06T14:53:01.822Z,27.80
2018-03-06T14:55:29.318Z,30.67
2018-03-06T14:57:56.892Z,31.93
2018-03-06T15:00:24.367Z,31.20
2018-03-06T15:02:52.580Z,30.30
2018-03-06T15:05:20.057Z,34.93
2018-03-06T15:07:47.512Z,34.17
2018-03-06T15:10:15.002Z,31.70
2018-03-06T15:12:42.483Z,26.03
2018-03-06T15:15:09.950Z,29.77
2018-03-06T15:17:37.441Z,28.17
2018-03-06T15:20:04.896Z,31.47
2018-03-06T15:22:32.362Z,34.23
2018-03-06T15:24:59.857Z,31.27
2018-03-06T15:27:28.070Z,29.67
2018-03-06T15:29:55.552Z,30.03
2018-03-06T15:32:23.765Z,32.57
2018-03-06T15:34:51.248Z,29.03
2018-03-06T15:37:18.753Z,29.27
2018-03-06T15:39:46.535Z,30.77
2018-03-06T15:42:14.345Z,29.97
2018-03-06T15:44:41.918Z,29.73
2018-03-06T15:47:09.453Z,26.17
2018-03-06T15:49:36.923Z,31.97
2018-03-06T15:52:04.422Z,27.30
2018-03-06T15:54:31.994Z,29.13
2018-03-06T15:56:59.518Z,27.60
2018-03-06T15:59:27.027Z,28.07
2018-03-06T16:01:54.575Z,30.77
2018-03-06T16:04:22.887Z,31.03
2018-03-06T16:06:51.236Z,30.30
2018-03-06T16:09:19.472Z,28.13
2018-03-06T16:11:47.721Z,33.93
2018-03-06T16:14:15.250Z,29.63
2018-03-06T16:16:42.739Z,27.63
2018-03-06T16:19:10.236Z,31.73
2018-03-06T16:21:38.514Z,29.93
2018-03-06T16:24:06.022Z,32.43
2018-03-06T16:26:33.543Z,25.83
2018-03-06T16:29:01.112Z,27.77
2018-03-06T16:31:28.626Z,33.83
2018-03-06T16:33:56.122Z,27.50
2018-03-06T16:36:24.402Z,35.73
2018-03-06T16:38:51.885Z,29.23
2018-03-06T16:41:19.388Z,34.30
2018-03-06T16:43:46.995Z,29.90
2018-03-06T16:46:14.466Z,25.13
2018-03-06T16:48:41.954Z,20.67
2018-03-06T16:51:09.466Z,20.03
2018-03-06T16:53:36.941Z,17.67
2018-03-06T16:56:04.426Z,19.47
2018-03-06T16:58:31.955Z,17.13
2018-03-06T17:00:59.454Z,16.63
2018-03-06T17:03:26.961Z,20.83
2018-03-06T17:05:54.491Z,20.87
2018-03-06T17:08:21.977Z,23.53
2018-03-06T17:10:49.485Z,21.83
2018-03-06T17:13:17.770Z,19.97
2018-03-06T17:15:46.034Z,18.87
2018-03-06T17:18:13.559Z,23.80
2018-03-06T17:20:41.038Z,26.10
2018-03-06T17:23:08.552Z,21.73
2018-03-06T17:25:36.981Z,24.23
2018-03-06T17:28:04.518Z,18.93
2018-03-06T17:30:32.277Z,23.13
2018-03-06T17:32:59.766Z,18.83
2018-03-06T17:35:27.302Z,17.63
2018-03-06T17:37:54.793Z,25.07
2018-03-06T17:40:23.063Z,20.77
2018-03-06T17:42:51.342Z,19.67
2018-03-06T17:45:19.590Z,24.77
2018-03-06T17:47:47.091Z,30.53
2018-03-06T17:50:15.359Z,31.73
2018-03-06T17:52:43.612Z,28.23
2018-03-06T17:55:11.120Z,30.40
2018-03-06T17:57:38.652Z,24.13
2018-03-06T18:00:06.926Z,20.50
2018-03-06T18:02:34.512Z,18.30
2018-03-06T18:05:02.032Z,20.13
2018-03-06T18:07:29.541Z,20.37
2018-03-06T18:09:57.062Z,27.87
2018-03-06T18:12:25.321Z,17.70
2018-03-06T18:14:52.802Z,22.50
2018-03-06T18:17:20.310Z,20.73
2018-03-06T18:19:47.810Z,19.43
2018-03-06T18:22:16.053Z,19.23
2018-03-06T18:24:43.545Z,22.87
2018-03-06T18:27:11.786Z,21.27
2018-03-06T18:29:39.290Z,22.83
2018-03-06T18:32:06.784Z,24.27
2018-03-06T18:34:34.352Z,21.27
2018-03-06T18:37:01.899Z,22.20
2018-03-06T18:39:29.377Z,22.60
2018-03-06T18:41:56.929Z,21.53
2018-03-06T18:44:24.558Z,23.83
2018-03-06T18:46:52.248Z,18.40
2018-03-06T18:49:19.775Z,23.50
2018-03-06T18:51:47.295Z,19.77
2018-03-06T18:54:15.588Z,17.67
2018-03-06T18:56:43.082Z,16.97
2018-03-06T18:59:10.594Z,17.50
2018-03-06T19:02:15.369Z,18.93
2018-03-06T19:04:54.846Z,14.77
2018-03-06T19:07:22.357Z,14.27
2018-03-06T19:09:49.883Z,15.47
2018-03-06T19:12:17.429Z,19.00
2018-03-06T19:14:45.702Z,15.37
2018-03-06T19:17:13.988Z,16.77
2018-03-06T19:19:41.518Z,15.53
2018-03-06T19:22:09.058Z,15.27
2018-03-06T19:24:36.607Z,16.40
2018-03-06T19:27:04.124Z,17.43
2018-03-06T19:29:31.669Z,13.93
2018-03-06T19:31:59.960Z,15.70
2018-03-06T19:34:28.910Z,19.30
2018-03-06T19:36:56.401Z,15.83
2018-03-06T19:39:24.639Z,17.87
2018-03-06T19:41:52.142Z,18.30
2018-03-06T19:44:20.475Z,20.77
2018-03-06T19:46:47.933Z,22.13
2018-03-06T19:49:15.425Z,23.07
2018-03-06T19:51:43.709Z,21.13
2018-03-06T19:54:11.236Z,16.53
2018-03-06T19:56:39.638Z,20.73
2018-03-06T19:59:07.143Z,17.50
2018-03-06T20:01:35.295Z,15.23
2018-03-06T20:04:02.791Z,21.10
2018-03-06T20:06:30.290Z,21.07
2018-03-06T20:08:58.924Z,16.33
2018-03-06T20:11:26.448Z,17.47
2018-03-06T20:13:53.948Z,20.60
2018-03-06T20:16:21.872Z,19.43
2018-03-06T20:21:56.133Z,17.73
2018-03-06T20:24:29.199Z,22.07
2018-03-06T20:26:56.758Z,17.83
2018-03-06T20:29:24.293Z,16.20
2018-03-06T20:31:58.233Z,17.03
2018-03-06T20:34:25.742Z,16.63
2018-03-06T20:36:53.234Z,16.97
2018-03-06T20:39:26.524Z,17.17
2018-03-06T20:41:54.106Z,19.37
2018-03-06T20:44:21.667Z,17.17
2018-03-06T20:46:54.951Z,16.00
2018-03-06T20:49:22.825Z,16.90
2018-03-06T20:51:50.357Z,17.70
2018-03-06T20:54:23.467Z,21.53
2018-03-06T20:56:51.076Z,23.97
2018-03-06T20:59:19.817Z,18.37
2018-03-06T21:01:47.396Z,17.23
2018-03-06T21:04:14.921Z,17.60
2018-03-06T21:06:43.610Z,18.60
2018-03-06T21:09:11.142Z,41.57
2018-03-06T21:11:39.404Z,18.73
2018-03-06T21:14:06.895Z,18.63
2018-03-06T21:16:34.371Z,24.50
2018-03-06T21:19:01.880Z,18.17
2018-03-06T21:21:29.408Z,16.13
2018-03-06T21:23:56.889Z,16.73
2018-03-06T21:26:24.379Z,22.93
2018-03-06T21:28:51.858Z,19.27
2018-03-06T21:31:19.394Z,27.07
2018-03-06T21:33:47.598Z,18.47
2018-03-06T21:36:15.104Z,21.23
2018-03-06T21:38:43.367Z,20.07
2018-03-06T21:41:10.847Z,19.17
2018-03-06T21:43:38.337Z,22.63
2018-03-06T21:46:05.811Z,21.53
2018-03-06T21:48:33.289Z,24.03
2018-03-06T21:51:00.783Z,20.97
2018-03-06T21:53:28.354Z,25.23
2018-03-06T21:55:55.795Z,32.93
2018-03-06T21:58:23.335Z,22.23
2018-03-06T22:00:51.563Z,22.53
2018-03-06T22:03:19.846Z,22.93
2018-03-06T22:05:47.311Z,26.27
2018-03-06T22:08:14.764Z,22.30
2018-03-06T22:10:42.249Z,28.03
2018-03-06T22:13:10.485Z,23.03
2018-03-06T22:15:37.944Z,29.23
2018-03-06T22:18:05.418Z,23.80
2018-03-06T22:20:32.869Z,27.63
2018-03-06T22:23:00.347Z,28.50
2018-03-06T22:25:27.790Z,32.67
2018-03-06T22:27:55.275Z,28.23
2018-03-06T22:30:23.496Z,28.50
2018-03-06T22:32:50.976Z,32.93
2018-03-06T22:35:18.432Z,32.03
2018-03-06T22:37:45.929Z,32.43
2018-03-06T22:40:13.386Z,28.43
2018-03-06T22:42:40.867Z,26.67
2018-03-06T22:45:08.324Z,30.00
2018-03-06T22:47:35.796Z,24.60
2018-03-06T22:50:03.254Z,24.67
2018-03-06T22:52:30.711Z,28.13
2018-03-06T22:54:58.144Z,31.87
2018-03-06T22:57:25.621Z,29.83
2018-03-06T22:59:53.087Z,29.37
2018-03-06T23:02:20.563Z,28.33
2018-03-06T23:04:48.009Z,30.23
2018-03-06T23:07:15.500Z,30.20
2018-03-06T23:09:43.718Z,33.07
2018-03-06T23:12:12.052Z,37.10
2018-03-06T23:14:40.297Z,36.23
2018-03-06T23:17:07.736Z,38.00
2018-03-06T23:19:35.227Z,39.90
2018-03-06T23:22:02.696Z,36.93
2018-03-06T23:24:30.929Z,37.63
2018-03-06T23:26:58.395Z,37.47
2018-03-06T23:29:25.867Z,34.77
2018-03-06T23:31:53.354Z,35.67
2018-03-06T23:34:20.838Z,35.70
2018-03-06T23:36:48.383Z,32.30
2018-03-06T23:39:15.826Z,35.07
2018-03-06T23:41:43.274Z,37.17
2018-03-06T23:44:10.751Z,31.03
2018-03-06T23:46:38.243Z,37.50
2018-03-06T23:49:05.695Z,39.80
2018-03-06T23:51:33.196Z,33.00
2018-03-06T23:54:01.430Z,39.37
2018-03-06T23:56:28.871Z,38.40
2018-03-06T23:58:56.337Z,41.47
